Time;durP1;ratioP1;P1;durP2;ratioP2;P2;SDS_P1;SDS_P2;PMS_P1;PMS_P2;Temp;Humidity;BMP_temperature;BMP_pressure;BME280_temperature;BME280_humidity;BME280_pressure;Samples;Min_cycle;Max_cycle;Signal;HPM_P1;HPM_P2
2023/10/12 00:00:41;;;;;;;0.00;0.00;;;;;;;15.52;100.00;99943.16;4969331;28;20434;-75
2023/10/12 00:03:12;;;;;;;0.00;0.00;;;;;;;15.54;100.00;99938.13;4947112;28;20022;-75
2023/10/12 00:05:39;;;;;;;0.00;0.00;;;;;;;15.53;100.00;99928.22;4925948;28;20463;-75
2023/10/12 00:08:09;;;;;;;0.00;0.00;;;;;;;15.51;100.00;99930.50;4930771;28;20035;-76
2023/10/12 00:10:41;;;;;;;0.00;0.00;;;;;;;15.56;100.00;99929.56;4948316;28;20085;-75
2023/10/12 00:13:06;;;;;;;0.00;0.00;;;;;;;15.52;100.00;99934.88;4925154;28;20121;-74
2023/10/12 00:15:41;;;;;;;0.00;0.00;;;;;;;15.51;100.00;99933.25;4934078;28;20027;-76
2023/10/12 00:18:10;;;;;;;0.00;0.00;;;;;;;15.51;100.00;99938.75;4923511;28;20491;-75
2023/10/12 00:20:39;;;;;;;0.00;0.00;;;;;;;15.50;100.00;99925.31;4962341;28;20046;-75
2023/10/12 00:23:10;;;;;;;0.00;0.00;;;;;;;15.53;100.00;99919.97;4949545;28;20504;-75
2023/10/12 00:25:46;;;;;;;0.00;0.00;;;;;;;15.52;100.00;99928.53;4918044;28;20038;-76
2023/10/12 00:28:19;;;;;;;0.00;0.00;;;;;;;15.44;100.00;99927.34;4968015;28;20107;-76
2023/10/12 00:30:49;;;;;;;0.00;0.00;;;;;;;15.53;100.00;99936.50;4945254;28;20038;-75
2023/10/12 00:33:17;;;;;;;0.00;0.00;;;;;;;15.50;100.00;99923.34;4940342;28;20035;-76
2023/10/12 00:35:49;;;;;;;0.00;0.00;;;;;;;15.55;100.00;99930.72;4962538;28;20807;-74
2023/10/12 00:38:18;;;;;;;0.00;0.00;;;;;;;15.52;100.00;99929.38;4958928;28;20033;-74
2023/10/12 00:41:14;;;;;;;0.00;0.00;;;;;;;15.61;100.00;99928.63;4958762;28;21417;-75
2023/10/12 00:44:05;;;;;;;0.00;0.00;;;;;;;15.60;100.00;99930.56;4932487;28;20053;-74
2023/10/12 00:49:14;;;;;;;0.00;0.00;;;;;;;15.65;100.00;99907.59;4930248;28;20081;-76
2023/10/12 00:51:48;;;;;;;0.00;0.00;;;;;;;15.66;100.00;99911.97;4965420;28;20035;-76
2023/10/12 00:54:32;;;;;;;0.00;0.00;;;;;;;15.72;100.00;99916.22;4930506;28;20030;-75
2023/10/12 00:57:19;;;;;;;0.00;0.00;;;;;;;15.72;100.00;99910.72;4952433;28;20027;-75
2023/10/12 00:59:46;;;;;;;0.00;0.00;;;;;;;15.70;100.00;99907.47;4962617;28;20093;-75
2023/10/12 01:02:12;;;;;;;0.00;0.00;;;;;;;15.71;100.00;99898.06;4969084;28;20150;-77
2023/10/12 01:04:41;;;;;;;0.00;0.00;;;;;;;15.74;100.00;99902.97;4925555;28;20125;-76
2023/10/12 01:07:07;;;;;;;0.00;0.00;;;;;;;15.74;100.00;99900.22;4917098;29;20035;-75
2023/10/12 01:09:39;;;;;;;0.00;0.00;;;;;;;15.71;100.00;99895.28;4957361;28;20039;-74
2023/10/12 01:12:13;;;;;;;0.00;0.00;;;;;;;15.75;100.00;99892.75;4962613;28;20153;-76
2023/10/12 01:14:43;;;;;;;0.00;0.00;;;;;;;15.81;100.00;99900.63;4941110;28;20039;-76
2023/10/12 01:17:24;;;;;;;0.00;0.00;;;;;;;15.73;100.00;99884.78;4965787;28;20076;-75
2023/10/12 01:19:51;;;;;;;0.00;0.00;;;;;;;15.84;100.00;99894.47;4951569;28;20026;-76
2023/10/12 01:22:25;;;;;;;0.00;0.00;;;;;;;15.83;100.00;99898.34;4961739;28;20389;-76
2023/10/12 01:27:21;;;;;;;0.00;0.00;;;;;;;15.83;100.00;99890.06;4943784;28;20051;-75
2023/10/12 01:29:47;;;;;;;0.00;0.00;;;;;;;15.88;100.00;99886.38;4924534;28;20035;-74
2023/10/12 01:34:39;;;;;;;0.00;0.00;;;;;;;15.92;100.00;99884.63;4950869;28;20062;-75
2023/10/12 01:37:20;;;;;;;0.00;0.00;;;;;;;15.85;100.00;99882.28;4920000;28;20131;-74
2023/10/12 01:39:55;;;;;;;0.00;0.00;;;;;;;15.92;100.00;99881.06;4936898;28;20030;-75
2023/10/12 01:42:21;;;;;;;0.00;0.00;;;;;;;15.96;100.00;99879.28;4945565;28;20046;-76
2023/10/12 01:44:47;;;;;;;0.00;0.00;;;;;;;15.92;100.00;99878.31;4950501;28;20026;-75
2023/10/12 01:47:13;;;;;;;0.00;0.00;;;;;;;15.96;100.00;99874.59;4931006;28;20046;-75
2023/10/12 01:49:39;;;;;;;0.00;0.00;;;;;;;15.90;100.00;99869.50;4930880;28;20121;-76
2023/10/12 01:52:08;;;;;;;0.00;0.00;;;;;;;15.97;100.00;99883.66;4934370;28;20031;-76
2023/10/12 01:54:35;;;;;;;0.00;0.00;;;;;;;15.94;100.00;99878.78;4928525;28;20022;-76
2023/10/12 01:57:01;;;;;;;0.00;0.00;;;;;;;15.99;100.00;99881.41;4951200;28;20033;-76
2023/10/12 01:59:26;;;;;;;0.00;0.00;;;;;;;15.91;100.00;99862.88;4928845;28;20126;-75
2023/10/12 02:02:00;;;;;;;0.00;0.00;;;;;;;15.95;100.00;99875.72;4935372;28;20039;-75
2023/10/12 02:04:26;;;;;;;0.00;0.00;;;;;;;15.97;100.00;99867.13;4907187;28;20150;-75
2023/10/12 02:06:52;;;;;;;0.00;0.00;;;;;;;16.00;100.00;99866.50;4919840;28;20481;-74
2023/10/12 02:09:22;;;;;;;0.00;0.00;;;;;;;16.05;100.00;99869.13;4928989;28;20019;-75
2023/10/12 02:11:53;;;;;;;0.00;0.00;;;;;;;16.05;100.00;99869.13;4934154;28;20409;-75
2023/10/12 02:14:39;;;;;;;0.00;0.00;;;;;;;16.08;100.00;99868.50;4932097;28;20051;-74
2023/10/12 02:17:05;;;;;;;0.00;0.00;;;;;;;16.04;100.00;99867.50;4962541;28;20055;-75
2023/10/12 02:19:37;;;;;;;0.00;0.00;;;;;;;16.04;100.00;99862.78;4940528;28;20039;-77
2023/10/12 02:22:03;;;;;;;0.00;0.00;;;;;;;16.11;100.00;99867.84;4924190;28;20175;-76
2023/10/12 02:24:29;;;;;;;0.00;0.00;;;;;;;16.13;100.00;99859.25;4929658;28;20051;-76
2023/10/12 02:26:55;;;;;;;0.00;0.00;;;;;;;16.07;100.00;99855.00;4958095;28;20035;-75
2023/10/12 02:29:21;;;;;;;0.00;0.00;;;;;;;16.19;100.00;99872.59;4961445;28;20031;-75
2023/10/12 02:34:17;;;;;;;0.00;0.00;;;;;;;16.18;100.00;99862.69;4942457;28;20046;-75
2023/10/12 02:37:16;;;;;;;0.00;0.00;;;;;;;16.22;100.00;99871.97;4958865;28;20038;-75
2023/10/12 02:39:43;;;;;;;0.00;0.00;;;;;;;16.16;100.00;99851.16;4955353;28;20069;-77
2023/10/12 02:47:22;;;;;;;0.00;0.00;;;;;;;16.26;100.00;99868.56;4959765;28;20034;-75
2023/10/12 02:52:43;;;;;;;0.00;0.00;;;;;;;16.21;100.00;99853.78;4960824;28;21419;-75
2023/10/12 02:57:59;;;;;;;0.00;0.00;;;;;;;16.30;100.00;99864.06;4961579;28;20373;-74
2023/10/12 03:03:16;;;;;;;0.00;0.00;;;;;;;16.31;100.00;99854.63;4969306;28;20031;-75
2023/10/12 03:05:48;;;;;;;0.00;0.00;;;;;;;16.27;100.00;99848.13;4962232;28;20046;-75
2023/10/12 03:08:17;;;;;;;0.00;0.00;;;;;;;16.28;100.00;99856.09;4921591;28;20659;-74
2023/10/12 03:13:34;;;;;;;0.00;0.00;;;;;;;16.27;100.00;99853.66;4947312;28;20064;-74
2023/10/12 03:18:44;;;;;;;0.00;0.00;;;;;;;16.21;100.00;99850.22;4946954;28;20043;-73
2023/10/12 03:21:13;;;;;;;0.00;0.00;;;;;;;16.19;100.00;99850.53;4913435;28;20043;-76
2023/10/12 03:23:46;;;;;;;0.00;0.00;;;;;;;16.23;100.00;99854.25;4932462;28;20403;-76
2023/10/12 03:26:24;;;;;;;0.00;0.00;;;;;;;16.18;100.00;99843.38;4940666;28;20115;-76
2023/10/12 03:29:18;;;;;;;0.00;0.00;;;;;;;16.21;100.00;99840.00;4951628;28;20019;-73
2023/10/12 03:34:30;;;;;;;0.00;0.00;;;;;;;16.30;100.00;99853.00;4946296;28;20712;-74
2023/10/12 03:36:58;;;;;;;0.00;0.00;;;;;;;16.30;100.00;99858.53;4939101;29;20030;-73
2023/10/12 03:45:08;;;;;;;0.00;0.00;;;;;;;16.31;100.00;99857.38;4933065;29;20036;-73
2023/10/12 03:52:19;;;;;;;0.00;0.00;;;;;;;16.29;100.00;99851.38;4948603;29;20031;-73
2023/10/12 03:57:44;;;;;;;0.00;0.00;;;;;;;16.26;100.00;99846.50;4944452;28;20039;-74
2023/10/12 04:02:58;;;;;;;0.00;0.00;;;;;;;16.27;100.00;99848.13;4943233;28;20090;-74
2023/10/12 04:05:45;;;;;;;0.00;0.00;;;;;;;16.27;100.00;99848.13;4941400;28;20054;-74
2023/10/12 04:18:32;;;;;;;0.00;0.00;;;;;;;16.26;100.00;99858.34;4968969;28;20031;-74
2023/10/12 04:20:58;;;;;;;0.00;0.00;;;;;;;16.19;100.00;99847.78;4947345;28;20035;-74
2023/10/12 04:28:52;;;;;;;0.00;0.00;;;;;;;16.26;100.00;99854.78;4954397;28;20035;-75
2023/10/12 04:31:20;;;;;;;0.00;0.00;;;;;;;16.30;100.00;99864.84;4924700;28;20375;-76
2023/10/12 04:34:04;;;;;;;0.00;0.00;;;;;;;16.31;100.00;99860.13;4967493;28;20027;-74
2023/10/12 04:36:44;;;;;;;0.00;0.00;;;;;;;16.30;100.00;99864.06;4936906;28;20037;-75
2023/10/12 04:39:27;;;;;;;0.00;0.00;;;;;;;16.29;100.00;99854.13;4933644;28;20490;-74
2023/10/12 04:42:13;;;;;;;0.00;0.00;;;;;;;16.29;100.00;99867.94;4966848;28;20059;-74
2023/10/12 04:44:43;;;;;;;0.00;0.00;;;;;;;16.23;100.00;99865.31;4963349;28;21359;-74
2023/10/12 04:47:10;;;;;;;0.00;0.00;;;;;;;16.21;100.00;99867.56;4966288;28;20019;-74
2023/10/12 04:49:59;;;;;;;0.00;0.00;;;;;;;16.14;100.00;99861.69;4963438;28;20105;-77
2023/10/12 04:52:33;;;;;;;0.00;0.00;;;;;;;16.09;100.00;99864.59;4963933;28;20493;-74
2023/10/12 04:55:07;;;;;;;0.00;0.00;;;;;;;16.05;100.00;99864.41;4928640;28;20672;-75
2023/10/12 04:57:34;;;;;;;0.00;0.00;;;;;;;15.98;100.00;99868.75;4932211;29;20123;-74
2023/10/12 05:05:15;;;;;;;0.00;0.00;;;;;;;15.82;100.00;99857.31;4947552;28;20030;-74
2023/10/12 05:13:04;;;;;;;0.00;0.00;;;;;;;15.85;100.00;99865.75;4969517;28;20035;-74
2023/10/12 05:15:42;;;;;;;0.00;0.00;;;;;;;15.83;100.00;99857.00;4963735;28;20035;-74
2023/10/12 05:18:13;;;;;;;0.00;0.00;;;;;;;15.85;100.00;99863.00;4945583;28;20211;-73
2023/10/12 05:20:42;;;;;;;0.00;0.00;;;;;;;15.82;100.00;99858.13;4954568;28;20023;-74
2023/10/12 05:23:09;;;;;;;0.00;0.00;;;;;;;15.84;100.00;99869.66;4949476;28;20433;-74
2023/10/12 05:28:27;;;;;;;0.00;0.00;;;;;;;15.84;100.00;99866.91;4967613;28;20031;-76
2023/10/12 05:30:59;;;;;;;0.00;0.00;;;;;;;15.84;100.00;99872.41;4961436;28;20035;-75
2023/10/12 05:36:14;;;;;;;0.00;0.00;;;;;;;15.85;100.00;99882.28;4957902;28;20580;-75
2023/10/12 05:38:51;;;;;;;0.00;0.00;;;;;;;15.79;100.00;99869.78;4941369;28;20113;-74
2023/10/12 05:43:58;;;;;;;0.00;0.00;;;;;;;15.76;100.00;99873.13;4967987;28;20026;-75
2023/10/12 05:46:29;;;;;;;0.00;0.00;;;;;;;15.75;100.00;99871.50;4944347;28;20046;-74
2023/10/12 05:48:55;;;;;;;0.00;0.00;;;;;;;15.78;100.00;99883.84;4930866;28;20023;-74
2023/10/12 05:51:23;;;;;;;0.00;0.00;;;;;;;15.69;100.00;99879.06;4944185;28;20539;-74
2023/10/12 05:53:49;;;;;;;0.00;0.00;;;;;;;15.70;100.00;99877.97;4940608;28;20038;-75
2023/10/12 05:56:17;;;;;;;0.00;0.00;;;;;;;15.59;100.00;99867.50;4919156;28;20532;-74
2023/10/12 05:58:43;;;;;;;0.00;0.00;;;;;;;15.63;100.00;99879.53;4959637;28;20652;-75
2023/10/12 06:01:10;;;;;;;0.00;0.00;;;;;;;15.63;100.00;99885.03;4967382;28;20027;-76
2023/10/12 06:03:39;;;;;;;0.00;0.00;;;;;;;15.60;100.00;99902.22;4948581;28;20031;-74
2023/10/12 06:06:06;;;;;;;0.00;0.00;;;;;;;15.56;100.00;99907.50;4964430;28;20124;-74
2023/10/12 06:08:37;;;;;;;0.00;0.00;;;;;;;15.44;100.00;99899.81;4930447;28;20113;-76
2023/10/12 06:11:04;;;;;;;0.00;0.00;;;;;;;15.27;100.00;99897.69;4966966;28;20047;-77
2023/10/12 06:13:40;;;;;;;0.00;0.00;;;;;;;15.22;100.00;99903.34;4945932;28;20058;-76
2023/10/12 06:16:14;;;;;;;0.00;0.00;;;;;;;15.12;100.00;99909.88;4930681;28;20030;-74
2023/10/12 06:18:46;;;;;;;0.00;0.00;;;;;;;15.01;100.00;99914.81;4938106;28;20039;-75
2023/10/12 06:21:18;;;;;;;0.00;0.00;;;;;;;14.94;100.00;99919.09;4916437;28;20122;-75
2023/10/12 06:23:50;;;;;;;0.00;0.00;;;;;;;14.87;100.00;99907.69;4945952;28;20070;-75
2023/10/12 06:26:28;;;;;;;0.00;0.00;;;;;;;14.89;100.00;99927.47;4962249;28;20488;-75
2023/10/12 06:28:55;;;;;;;0.00;0.00;;;;;;;14.87;100.00;99930.53;4956578;28;20049;-74
2023/10/12 06:31:21;;;;;;;0.00;0.00;;;;;;;14.81;100.00;99921.56;4927991;28;20054;-74
2023/10/12 06:33:48;;;;;;;0.00;0.00;;;;;;;14.80;100.00;99936.44;4932720;28;20058;-76
2023/10/12 06:42:09;;;;;;;0.00;0.00;;;;;;;14.61;100.00;99936.53;5491730;23;20117;-75
2023/10/12 06:44:35;;;;;;;0.00;0.00;;;;;;;14.58;100.00;99925.28;4949211;28;20061;-79
2023/10/12 06:47:23;;;;;;;0.00;0.00;;;;;;;14.54;100.00;99932.53;4936441;28;20090;-77
2023/10/12 06:50:00;;;;;;;0.00;0.00;;;;;;;14.45;100.00;99935.97;4965072;28;20061;-75
2023/10/12 06:52:25;;;;;;;0.00;0.00;;;;;;;14.53;100.00;99939.13;4947997;28;20077;-76
2023/10/12 06:54:54;;;;;;;0.00;0.00;;;;;;;14.44;100.00;99939.03;4964806;28;20027;-74
2023/10/12 07:02:29;;;;;;;0.00;0.00;;;;;;;14.41;100.00;99940.47;4951074;28;20034;-77
2023/10/12 07:05:00;;;;;;;0.00;0.00;;;;;;;14.50;100.00;99954.34;4963244;28;20031;-76
2023/10/12 07:07:36;;;;;;;0.00;0.00;;;;;;;14.58;100.00;99950.88;4926598;29;20131;-76
2023/10/12 07:12:37;;;;;;;0.00;0.00;;;;;;;14.59;100.00;99947.00;4966016;28;20026;-76
2023/10/12 07:15:10;;;;;;;0.00;0.00;;;;;;;14.66;100.00;99963.97;4966205;28;20030;-76
2023/10/12 07:17:44;;;;;;;0.00;0.00;;;;;;;14.52;100.00;99951.28;4942964;28;20062;-76
2023/10/12 07:20:25;;;;;;;0.00;0.00;;;;;;;14.46;100.00;99947.81;4951772;28;20081;-77
2023/10/12 07:22:51;;;;;;;0.00;0.00;;;;;;;14.55;100.00;99978.19;4944543;28;20062;-76
2023/10/12 07:25:22;;;;;;;0.00;0.00;;;;;;;14.37;100.00;99950.44;4923772;28;20081;-76
2023/10/12 07:27:59;;;;;;;0.00;0.00;;;;;;;14.48;100.00;99979.41;4961488;28;20552;-76
2023/10/12 07:30:30;;;;;;;0.00;0.00;;;;;;;14.53;100.00;99983.16;4950365;28;20046;-75
2023/10/12 07:33:05;;;;;;;0.00;0.00;;;;;;;14.37;100.00;99964.19;4945487;28;20027;-77
2023/10/12 07:35:42;;;;;;;0.00;0.00;;;;;;;14.54;100.00;99993.84;4941766;28;20063;-75
2023/10/12 07:38:15;;;;;;;0.00;0.00;;;;;;;14.45;100.00;99984.69;4964790;28;20103;-76
2023/10/12 07:40:56;;;;;;;0.00;0.00;;;;;;;14.33;100.00;99982.41;4951473;28;20026;-76
2023/10/12 07:43:25;;;;;;;0.00;0.00;;;;;;;14.49;100.00;100008.53;4945554;28;20054;-76
2023/10/12 07:45:51;;;;;;;0.00;0.00;;;;;;;14.46;100.00;100003.63;4921947;28;20030;-76
2023/10/12 07:48:30;;;;;;;0.00;0.00;;;;;;;14.54;100.00;100009.56;4925218;29;20844;-76
2023/10/12 07:51:19;;;;;;;0.00;0.00;;;;;;;14.57;100.00;100008.94;4949971;28;20143;-77
2023/10/12 07:53:57;;;;;;;0.00;0.00;;;;;;;14.56;100.00;100001.81;4964225;28;20027;-76
2023/10/12 07:56:22;;;;;;;0.00;0.00;;;;;;;14.76;100.00;100012.50;4924775;28;20042;-77
2023/10/12 07:58:57;;;;;;;0.00;0.00;;;;;;;14.63;100.00;99991.25;4944303;28;20031;-77
2023/10/12 08:03:58;;;;;;;0.00;0.00;;;;;;;14.57;100.00;100023.53;4937380;28;20042;-76
2023/10/12 08:09:19;;;;;;;0.00;0.00;;;;;;;14.40;100.00;100032.34;4928306;28;20117;-76
2023/10/12 08:11:48;;;;;;;0.00;0.00;;;;;;;14.33;100.00;100018.16;4944436;28;20062;-74
2023/10/12 08:19:39;;;;;;;0.00;0.00;;;;;;;14.80;100.00;100030.00;4943821;28;20045;-75
2023/10/12 08:22:25;;;;;;;0.00;0.00;;;;;;;14.84;100.00;100025.53;4947761;28;20066;-76
2023/10/12 08:24:53;;;;;;;0.00;0.00;;;;;;;14.84;100.00;100017.28;4938153;28;20566;-75
2023/10/12 08:27:19;;;;;;;0.00;0.00;;;;;;;14.91;100.00;100029.81;4944201;28;20110;-76
2023/10/12 08:32:29;;;;;;;0.00;0.00;;;;;;;15.05;100.00;100025.13;4947590;28;20439;-76
2023/10/12 08:37:26;;;;;;;0.00;0.00;;;;;;;15.24;100.00;100015.97;4948912;28;20027;-76
2023/10/12 08:42:55;;;;;;;0.00;0.00;;;;;;;15.87;100.00;100026.19;4958121;28;20057;-76
2023/10/12 08:45:23;;;;;;;0.00;0.00;;;;;;;16.20;100.00;100011.34;4954901;28;20031;-76
2023/10/12 08:47:49;;;;;;;0.00;0.00;;;;;;;16.52;100.00;100015.75;4943172;28;20025;-76
2023/10/12 08:52:52;;;;;;;0.00;0.00;;;;;;;16.71;100.00;100031.28;4964677;28;20109;-75
2023/10/12 08:55:24;;;;;;;0.00;0.00;;;;;;;16.60;100.00;100032.69;4958408;28;20019;-75
2023/10/12 08:58:11;;;;;;;0.00;0.00;;;;;;;16.95;100.00;100053.03;4944091;28;20390;-76
2023/10/12 09:00:39;;;;;;;0.00;0.00;;;;;;;17.22;100.00;100043.72;4962515;28;20026;-76
2023/10/12 09:05:51;;;;;;;0.00;0.00;;;;;;;17.49;100.00;100044.59;4931745;28;20027;-75
2023/10/12 09:11:13;;;;;;;0.00;0.00;;;;;;;17.35;100.00;100041.97;4945391;28;20126;-76
2023/10/12 09:13:46;;;;;;;0.00;0.00;;;;;;;17.35;100.00;100054.97;4945768;28;20122;-75
2023/10/12 09:16:18;;;;;;;0.00;0.00;;;;;;;17.28;100.00;100049.91;4926673;28;20041;-76
2023/10/12 09:18:44;;;;;;;0.00;0.00;;;;;;;17.32;100.00;100033.50;4945516;28;20393;-76
2023/10/12 09:26:34;;;;;;;;;;;;;;;17.70;100.00;100060.59;4966249;28;20033;-76
2023/10/12 09:32:28;;;;;;;0.00;0.00;;;;;;;18.11;99.79;100056.56;4955560;28;20029;-75
2023/10/12 09:35:33;;;;;;;0.00;0.00;;;;;;;18.11;98.73;100049.06;4949350;28;20043;-75
2023/10/12 09:40:39;;;;;;;0.00;0.00;;;;;;;18.25;98.83;100078.53;4951925;28;20035;-76
2023/10/12 09:43:15;;;;;;;0.00;0.00;;;;;;;18.42;98.61;100066.66;4912918;28;20146;-76
2023/10/12 09:45:47;;;;;;;0.00;0.00;;;;;;;18.82;96.69;100085.78;4946842;28;20035;-76
2023/10/12 09:48:19;;;;;;;0.00;0.00;;;;;;;18.72;96.19;100067.56;4943069;28;20205;-76
2023/10/12 09:50:48;;;;;;;0.00;0.00;;;;;;;18.95;96.39;100090.34;4965316;28;20054;-76
2023/10/12 09:53:26;;;;;;;0.00;0.00;;;;;;;18.90;95.30;100071.13;4957675;28;20026;-77
2023/10/12 09:56:16;;;;;;;0.00;0.00;;;;;;;18.82;95.81;100074.69;4949545;28;20690;-76
2023/10/12 09:59:29;;;;;;;0.00;0.00;;;;;;;18.73;96.87;100087.75;4945621;28;20477;-75
2023/10/12 10:07:15;;;;;;;0.00;0.00;;;;;;;18.95;97.86;100086.75;4963864;28;20389;-75
2023/10/12 10:09:58;;;;;;;0.00;0.00;;;;;;;19.13;96.56;100068.91;4964506;28;20029;-76
2023/10/12 10:12:27;;;;;;;0.00;0.00;;;;;;;19.45;95.68;100090.78;4956532;28;20125;-75
2023/10/12 10:14:57;;;;;;;0.00;0.00;;;;;;;19.46;95.61;100092.41;4962616;28;20035;-75
2023/10/12 10:17:35;;;;;;;0.00;0.00;;;;;;;19.33;95.14;100095.09;4959036;28;20154;-76
2023/10/12 10:22:58;;;;;;;0.00;0.00;;;;;;;19.07;94.97;100092.44;4945382;28;20058;-78
2023/10/12 10:25:45;;;;;;;0.00;0.00;;;;;;;18.92;95.39;100081.88;4965398;28;20039;-75
2023/10/12 10:28:24;;;;;;;0.00;0.00;;;;;;;18.98;96.62;100088.84;4964706;28;20470;-75
2023/10/12 10:30:52;;;;;;;0.00;0.00;;;;;;;19.06;96.40;100085.25;4957876;28;20119;-75
2023/10/12 10:33:22;;;;;;;0.00;0.00;;;;;;;19.27;95.91;100090.84;4965658;28;20027;-76
2023/10/12 10:36:10;;;;;;;0.00;0.00;;;;;;;19.40;95.03;100089.00;4962791;28;20784;-76
2023/10/12 10:38:53;;;;;;;0.00;0.00;;;;;;;19.56;94.20;100086.47;4940134;28;20083;-75
2023/10/12 10:41:23;;;;;;;0.00;0.00;;;;;;;19.67;92.80;100090.50;4931707;28;20456;-75
2023/10/12 10:43:52;;;;;;;0.00;0.00;;;;;;;19.60;90.64;100086.63;4959026;28;20042;-75
2023/10/12 10:46:18;;;;;;;0.00;0.00;;;;;;;19.74;88.74;100086.38;4932335;28;21701;-76
2023/10/12 10:48:53;;;;;;;0.00;0.00;;;;;;;19.78;88.27;100076.25;4948727;28;20067;-76
2023/10/12 10:51:27;;;;;;;0.00;0.00;;;;;;;19.90;87.60;100068.00;4958528;28;20090;-75
2023/10/12 10:53:53;;;;;;;0.00;0.00;;;;;;;20.10;86.91;100076.69;4932706;28;20121;-74
2023/10/12 10:56:37;;;;;;;0.00;0.00;;;;;;;20.27;86.55;100093.19;4947059;28;20125;-76
2023/10/12 10:59:07;;;;;;;0.00;0.00;;;;;;;20.18;85.72;100095.22;4962681;28;20511;-75
2023/10/12 11:01:33;;;;;;;0.00;0.00;;;;;;;20.15;85.56;100095.91;4945534;28;20045;-75
2023/10/12 11:04:01;;;;;;;0.00;0.00;;;;;;;19.96;84.56;100094.44;4960954;28;20030;-75
2023/10/12 11:06:30;;;;;;;0.00;0.00;;;;;;;19.99;83.85;100090.97;4964714;28;20473;-74
2023/10/12 11:09:09;;;;;;;0.00;0.00;;;;;;;20.05;83.65;100100.72;4959557;28;20731;-75
2023/10/12 11:11:38;;;;;;;0.00;0.00;;;;;;;19.79;83.97;100072.34;4942705;28;20042;-76
2023/10/12 11:14:10;;;;;;;0.00;0.00;;;;;;;19.56;83.87;100078.16;4940435;28;20073;-75
2023/10/12 11:16:43;;;;;;;0.00;0.00;;;;;;;19.23;83.27;100087.16;4966124;28;20105;-75
2023/10/12 11:19:09;;;;;;;0.00;0.00;;;;;;;19.16;82.32;100095.16;4941353;28;20751;-75
2023/10/12 11:21:35;;;;;;;0.00;0.00;;;;;;;18.94;82.37;100082.34;4958779;28;20042;-77
2023/10/12 11:24:03;;;;;;;0.00;0.00;;;;;;;19.07;82.61;100091.59;4913351;28;20114;-76
2023/10/12 11:26:39;;;;;;;0.00;0.00;;;;;;;19.11;83.00;100087.03;4963086;28;20019;-76
2023/10/12 11:29:11;;;;;;;0.00;0.00;;;;;;;19.20;82.88;100107.19;4932461;28;20032;-76
2023/10/12 11:31:37;;;;;;;0.00;0.00;;;;;;;18.92;82.56;100091.00;4946720;28;20126;-75
2023/10/12 11:34:12;;;;;;;0.00;0.00;;;;;;;18.81;82.63;100098.00;4950915;28;20030;-76
2023/10/12 11:36:38;;;;;;;0.00;0.00;;;;;;;18.49;82.25;100105.72;4936163;28;20023;-75
2023/10/12 11:39:10;;;;;;;0.00;0.00;;;;;;;18.41;83.15;100103.75;4965197;28;20034;-76
2023/10/12 11:41:36;;;;;;;0.00;0.00;;;;;;;18.39;83.09;100108.81;4963314;28;20034;-74
2023/10/12 11:44:05;;;;;;;0.00;0.00;;;;;;;18.48;83.55;100088.28;4951528;28;20046;-76
2023/10/12 11:46:43;;;;;;;0.00;0.00;;;;;;;18.94;83.25;100105.34;4928755;28;20536;-75
2023/10/12 11:49:10;;;;;;;0.00;0.00;;;;;;;19.01;82.39;100094.56;4921813;28;20058;-76
2023/10/12 11:51:51;;;;;;;0.00;0.00;;;;;;;19.17;82.19;100096.78;4946424;28;20030;-75
2023/10/12 11:54:20;;;;;;;0.00;0.00;;;;;;;19.28;81.80;100095.25;4952022;28;20038;-76
2023/10/12 11:56:51;;;;;;;0.00;0.00;;;;;;;19.29;81.85;100099.66;4936496;28;20046;-75
2023/10/12 11:59:26;;;;;;;0.00;0.00;;;;;;;19.42;82.24;100088.66;4958890;28;20035;-76
2023/10/12 12:01:56;;;;;;;0.00;0.00;;;;;;;19.60;81.34;100095.75;4960211;28;20026;-75
2023/10/12 12:04:32;;;;;;;0.00;0.00;;;;;;;19.46;81.44;100084.09;4940148;28;20023;-78
2023/10/12 12:06:59;;;;;;;0.00;0.00;;;;;;;19.45;81.36;100096.31;4938539;28;20035;-75
2023/10/12 12:09:27;;;;;;;0.00;0.00;;;;;;;19.40;81.34;100085.44;4958644;28;20031;-76
2023/10/12 12:11:54;;;;;;;0.00;0.00;;;;;;;19.31;81.38;100075.19;4946884;28;20505;-75
2023/10/12 12:14:20;;;;;;;0.00;0.00;;;;;;;19.26;81.19;100092.03;4933069;28;20134;-76
2023/10/12 12:16:46;;;;;;;0.00;0.00;;;;;;;19.04;80.68;100098.63;4918073;29;20122;-76
2023/10/12 12:19:18;;;;;;;0.00;0.00;;;;;;;18.84;80.67;100094.59;4940932;28;20027;-76
2023/10/12 12:21:45;;;;;;;0.00;0.00;;;;;;;18.86;81.11;100086.78;4937683;28;20034;-76
2023/10/12 12:26:45;;;;;;;0.00;0.00;;;;;;;18.67;80.99;100068.56;4936231;28;20030;-75
2023/10/12 12:29:15;;;;;;;0.00;0.00;;;;;;;18.78;81.20;100087.59;4926544;28;20027;-77
2023/10/12 12:31:41;;;;;;;0.00;0.00;;;;;;;18.83;81.38;100082.66;4962249;28;20055;-77
2023/10/12 12:34:06;;;;;;;0.00;0.00;;;;;;;18.89;81.25;100088.88;4945587;28;20065;-75
2023/10/12 12:36:33;;;;;;;0.00;0.00;;;;;;;18.93;81.01;100081.53;4947251;28;20031;-76
2023/10/12 12:39:00;;;;;;;0.00;0.00;;;;;;;18.97;80.52;100076.16;4934646;28;20792;-75
2023/10/12 12:41:26;;;;;;;0.00;0.00;;;;;;;18.95;80.54;100076.50;4958023;28;20632;-75
2023/10/12 12:43:52;;;;;;;0.00;0.00;;;;;;;18.98;80.55;100072.22;4942072;28;20166;-75
2023/10/12 12:46:19;;;;;;;0.00;0.00;;;;;;;19.09;80.31;100072.69;4942015;28;20093;-75
2023/10/12 12:49:00;;;;;;;0.00;0.00;;;;;;;19.22;80.18;100070.84;4960572;28;20121;-77
2023/10/12 12:51:29;;;;;;;0.00;0.00;;;;;;;19.31;79.32;100058.56;4956656;28;20671;-76
2023/10/12 12:53:56;;;;;;;0.00;0.00;;;;;;;19.48;78.51;100068.75;4963802;28;20034;-78
2023/10/12 12:56:24;;;;;;;0.00;0.00;;;;;;;19.69;78.70;100077.09;4962880;28;20085;-76
2023/10/12 12:58:51;;;;;;;0.00;0.00;;;;;;;19.86;78.35;100058.75;4960067;28;20131;-75
2023/10/12 13:01:23;;;;;;;0.00;0.00;;;;;;;20.02;78.03;100048.66;4925769;29;20138;-76
2023/10/12 13:03:52;;;;;;;0.00;0.00;;;;;;;20.32;77.04;100056.88;4941929;28;20022;-76
2023/10/12 13:06:19;;;;;;;0.00;0.00;;;;;;;20.64;77.01;100051.66;4941779;28;20437;-75
2023/10/12 13:08:44;;;;;;;0.00;0.00;;;;;;;21.06;75.91;100056.31;4942015;28;20077;-76
2023/10/12 13:11:11;;;;;;;0.00;0.00;;;;;;;21.44;75.30;100072.63;4965422;28;20093;-76
2023/10/12 13:13:39;;;;;;;0.00;0.00;;;;;;;21.49;73.46;100070.78;4932568;28;20026;-76
2023/10/12 13:16:12;;;;;;;0.00;0.00;;;;;;;21.33;72.69;100043.66;4943226;29;20042;-76
2023/10/12 13:18:38;;;;;;;0.00;0.00;;;;;;;21.09;72.24;100048.06;4945303;28;20446;-75
2023/10/12 13:21:07;;;;;;;0.00;0.00;;;;;;;20.84;71.90;100071.44;4943140;28;20030;-75
2023/10/12 13:23:35;;;;;;;0.00;0.00;;;;;;;20.48;72.41;100075.69;4965866;28;20433;-75
2023/10/12 13:26:12;;;;;;;0.00;0.00;;;;;;;20.22;72.88;100060.09;4940283;28;20034;-75
2023/10/12 13:28:40;;;;;;;0.00;0.00;;;;;;;20.11;73.68;100062.47;4950239;28;20388;-75
2023/10/12 13:31:06;;;;;;;0.00;0.00;;;;;;;20.13;74.13;100071.25;4948390;28;20030;-75
2023/10/12 13:33:35;;;;;;;0.00;0.00;;;;;;;20.01;74.52;100074.00;4948162;28;20114;-76
2023/10/12 13:36:01;;;;;;;0.00;0.00;;;;;;;19.82;74.82;100052.25;4948187;28;20034;-76
2023/10/12 13:38:29;;;;;;;0.00;0.00;;;;;;;19.84;75.18;100069.38;4964863;28;20019;-76
2023/10/12 13:40:54;;;;;;;0.00;0.00;;;;;;;19.88;75.54;100073.09;4911884;28;20027;-76
2023/10/12 13:43:30;;;;;;;0.00;0.00;;;;;;;19.87;75.48;100063.97;4931929;28;20131;-76
2023/10/12 13:45:56;;;;;;;0.00;0.00;;;;;;;19.68;75.97;100036.66;4938130;28;20118;-76
2023/10/12 13:48:27;;;;;;;0.00;0.00;;;;;;;19.96;76.46;100072.22;4927343;29;20034;-76
2023/10/12 13:51:12;;;;;;;0.00;0.00;;;;;;;19.87;76.09;100071.47;4939658;28;20035;-74
2023/10/12 13:53:38;;;;;;;0.00;0.00;;;;;;;19.68;75.92;100078.28;4946363;28;20027;-74
2023/10/12 13:56:11;;;;;;;0.00;0.00;;;;;;;19.45;76.06;100068.59;4925261;28;20166;-75
2023/10/12 13:58:41;;;;;;;0.00;0.00;;;;;;;19.27;76.63;100074.22;4943703;28;20390;-75
2023/10/12 14:01:14;;;;;;;0.00;0.00;;;;;;;19.07;77.62;100069.44;4930895;28;20078;-74
2023/10/12 14:03:44;;;;;;;0.00;0.00;;;;;;;18.91;77.91;100078.31;4940990;28;20478;-76
2023/10/12 14:06:11;;;;;;;0.00;0.00;;;;;;;18.74;78.43;100079.13;4940090;28;20113;-74
2023/10/12 14:08:40;;;;;;;0.00;0.00;;;;;;;18.48;79.07;100079.16;4939554;28;20067;-75